Time;durP1;ratioP1;P1;durP2;ratioP2;P2;SDS_P1;SDS_P2;PMS_P1;PMS_P2;Temp;Humidity;BMP_temperature;BMP_pressure;BME280_temperature;BME280_humidity;BME280_pressure;Samples;Min_cycle;Max_cycle;Signal;HPM_P1;HPM_P2
2024/01/28 00:02:16;;;;;;;10.40;3.50;;;5.30;99.90;;;;;;4935884;29;20064;-50
2024/01/28 00:04:41;;;;;;;9.30;3.70;;;5.40;99.90;;;;;;4934348;29;20087;-48
2024/01/28 00:07:07;;;;;;;11.05;3.55;;;5.40;99.90;;;;;;4924184;29;20047;-50
2024/01/28 00:09:33;;;;;;;10.02;3.95;;;5.30;99.90;;;;;;4917350;29;20107;-52
2024/01/28 00:11:58;;;;;;;11.45;3.10;;;5.30;99.90;;;;;;4917151;29;20032;-51
2024/01/28 00:14:24;;;;;;;9.50;3.28;;;5.30;99.90;;;;;;4917163;29;20068;-53
2024/01/28 00:16:49;;;;;;;10.75;3.20;;;5.30;99.90;;;;;;4916940;29;20095;-49
2024/01/28 00:19:16;;;;;;;7.20;3.35;;;5.20;99.90;;;;;;4917288;29;20060;-50
2024/01/28 00:21:42;;;;;;;8.75;3.30;;;5.20;99.90;;;;;;4916914;29;20027;-50
2024/01/28 00:24:08;;;;;;;9.48;3.40;;;5.20;99.90;;;;;;4917071;29;20119;-49
2024/01/28 00:26:38;;;;;;;8.40;3.60;;;5.20;99.90;;;;;;4923330;29;20330;-46
2024/01/28 00:29:04;;;;;;;8.90;3.30;;;5.20;99.90;;;;;;4919070;29;20031;-44
2024/01/28 00:31:29;;;;;;;8.77;3.05;;;5.20;99.90;;;;;;4929627;29;20138;-47
2024/01/28 00:33:55;;;;;;;8.57;2.80;;;5.20;99.90;;;;;;4925420;29;20028;-45
2024/01/28 00:36:21;;;;;;;11.50;4.05;;;5.20;99.90;;;;;;4928119;29;20066;-46
2024/01/28 00:38:46;;;;;;;10.18;2.97;;;5.10;99.90;;;;;;4927343;29;20440;-51
2024/01/28 00:41:29;;;;;;;9.55;3.40;;;5.20;99.90;;;;;;4926152;29;20111;-51
2024/01/28 00:43:55;;;;;;;13.52;3.30;;;5.20;99.90;;;;;;4927190;29;20123;-49
2024/01/28 00:46:24;;;;;;;8.10;2.95;;;5.20;99.90;;;;;;4926359;29;20032;-49
2024/01/28 00:48:50;;;;;;;7.38;3.28;;;5.20;99.90;;;;;;4928483;29;20102;-48
2024/01/28 00:51:15;;;;;;;16.10;3.45;;;5.10;99.90;;;;;;4924939;29;20107;-48
2024/01/28 00:53:41;;;;;;;7.55;2.88;;;5.00;99.90;;;;;;4929579;29;20424;-45
2024/01/28 00:56:07;;;;;;;8.98;2.80;;;5.00;99.90;;;;;;4924862;29;20042;-50
2024/01/28 00:58:34;;;;;;;7.28;2.47;;;5.00;99.90;;;;;;4928971;29;20051;-54
2024/01/28 01:00:59;;;;;;;7.70;2.90;;;5.00;99.90;;;;;;4929670;29;20024;-46
2024/01/28 01:03:25;;;;;;;11.50;2.55;;;4.80;99.90;;;;;;4934864;29;20110;-47
2024/01/28 01:05:51;;;;;;;13.43;2.97;;;4.80;99.90;;;;;;4934525;29;20036;-49
2024/01/28 01:08:17;;;;;;;10.20;3.00;;;4.70;99.90;;;;;;4934912;29;20130;-50
2024/01/28 01:10:43;;;;;;;6.45;3.22;;;4.70;99.90;;;;;;4934458;29;20492;-50
2024/01/28 01:13:09;;;;;;;6.88;3.17;;;4.70;99.90;;;;;;4933281;29;20107;-54
2024/01/28 01:15:35;;;;;;;9.07;3.08;;;4.70;99.90;;;;;;4934447;29;20027;-45
2024/01/28 01:18:00;;;;;;;4.82;2.40;;;4.70;99.90;;;;;;4934480;29;20392;-51
2024/01/28 01:20:26;;;;;;;5.30;2.70;;;4.80;99.90;;;;;;4934729;29;20044;-47
2024/01/28 01:22:53;;;;;;;7.85;2.42;;;4.70;99.90;;;;;;4934291;29;20336;-48
2024/01/28 01:25:19;;;;;;;7.82;3.00;;;4.70;99.90;;;;;;4934001;29;20051;-50
2024/01/28 01:27:48;;;;;;;4.85;2.70;;;4.70;99.90;;;;;;4933836;29;20026;-52
2024/01/28 01:30:15;;;;;;;8.15;2.88;;;4.80;99.90;;;;;;4934284;29;20031;-55
2024/01/28 01:32:41;;;;;;;8.75;3.00;;;4.80;99.90;;;;;;4932767;29;20055;-46
2024/01/28 01:35:14;;;;;;;10.57;2.85;;;4.80;99.90;;;;;;4922878;29;20071;-53
2024/01/28 01:37:40;;;;;;;7.25;2.30;;;4.80;99.90;;;;;;4933982;29;20498;-53
2024/01/28 01:40:06;;;;;;;8.38;2.75;;;4.80;99.90;;;;;;4934178;29;20475;-50
2024/01/28 01:42:31;;;;;;;10.38;2.92;;;4.80;99.90;;;;;;4933943;29;20091;-52
2024/01/28 01:44:57;;;;;;;12.25;3.10;;;4.80;99.90;;;;;;4933641;29;20027;-58
2024/01/28 01:47:24;;;;;;;6.93;2.78;;;4.80;99.90;;;;;;4933864;29;20110;-51
2024/01/28 01:49:51;;;;;;;10.55;3.50;;;4.70;99.90;;;;;;4933591;29;20027;-47
2024/01/28 01:52:18;;;;;;;8.80;3.03;;;4.60;99.90;;;;;;4933857;29;20103;-50
2024/01/28 01:54:44;;;;;;;7.35;3.15;;;4.50;99.90;;;;;;4933707;29;20086;-54
2024/01/28 01:57:11;;;;;;;7.25;2.83;;;4.40;99.90;;;;;;4933856;29;20031;-56
2024/01/28 01:59:37;;;;;;;9.45;3.53;;;4.30;99.90;;;;;;4933729;29;20471;-53
2024/01/28 02:02:07;;;;;;;6.40;3.20;;;4.20;99.90;;;;;;4933592;29;20136;-48
2024/01/28 02:04:33;;;;;;;6.95;2.90;;;4.10;99.90;;;;;;4933829;29;20058;-48
2024/01/28 02:06:59;;;;;;;8.07;3.13;;;4.10;99.90;;;;;;4933451;29;20047;-50
2024/01/28 02:09:25;;;;;;;6.10;3.17;;;4.00;99.90;;;;;;4933542;29;20024;-54
2024/01/28 02:11:51;;;;;;;6.90;2.83;;;3.90;99.90;;;;;;4933539;29;20078;-48
2024/01/28 02:14:29;;;;;;;7.55;2.88;;;3.90;99.90;;;;;;4933383;29;20032;-54
2024/01/28 02:16:55;;;;;;;10.93;2.85;;;3.90;99.90;;;;;;4933464;29;20510;-50
2024/01/28 02:19:21;;;;;;;11.68;3.22;;;4.10;99.90;;;;;;4933509;29;20070;-55
2024/01/28 02:21:47;;;;;;;5.10;2.50;;;4.10;99.90;;;;;;4933474;29;20182;-52
2024/01/28 02:24:16;;;;;;;9.52;3.38;;;4.30;99.90;;;;;;4933276;29;20166;-44
2024/01/28 02:26:41;;;;;;;12.67;3.17;;;4.50;99.90;;;;;;4933235;29;20047;-58
2024/01/28 02:29:07;;;;;;;6.47;2.90;;;4.60;99.90;;;;;;4933163;29;20031;-58
2024/01/28 02:31:33;;;;;;;7.75;3.15;;;4.70;99.90;;;;;;4933437;29;20035;-56
2024/01/28 02:33:58;;;;;;;8.90;2.95;;;4.80;99.90;;;;;;4931983;29;20083;-51
2024/01/28 02:36:26;;;;;;;7.80;2.70;;;4.80;99.90;;;;;;4924476;29;20479;-50
2024/01/28 02:38:51;;;;;;;14.02;2.83;;;4.80;99.90;;;;;;4919858;29;20072;-46
2024/01/28 02:41:17;;;;;;;7.82;2.80;;;4.80;99.90;;;;;;4922165;29;20558;-51
2024/01/28 02:43:42;;;;;;;9.88;2.80;;;4.80;99.90;;;;;;4921902;29;20020;-56
2024/01/28 02:46:08;;;;;;;11.10;2.38;;;4.70;99.90;;;;;;4914734;29;20393;-53
2024/01/28 02:48:34;;;;;;;8.02;2.80;;;4.70;99.90;;;;;;4912011;29;20412;-53
2024/01/28 02:50:59;;;;;;;7.60;2.60;;;4.70;99.90;;;;;;4909196;29;20392;-47
2024/01/28 02:53:25;;;;;;;6.32;2.58;;;4.70;99.90;;;;;;4908980;29;20103;-51
2024/01/28 02:55:50;;;;;;;7.47;2.75;;;4.70;99.90;;;;;;4911892;29;20028;-50
2024/01/28 02:58:16;;;;;;;7.90;2.47;;;4.60;99.90;;;;;;4917196;29;20031;-57
2024/01/28 03:00:42;;;;;;;5.00;2.60;;;4.50;99.90;;;;;;4918756;29;20551;-53
2024/01/28 03:03:08;;;;;;;7.15;2.53;;;4.50;99.90;;;;;;4915009;29;20112;-50
2024/01/28 03:05:35;;;;;;;7.07;2.75;;;4.50;99.90;;;;;;4918399;29;20031;-50
2024/01/28 03:08:00;;;;;;;7.65;2.58;;;4.50;99.90;;;;;;4915373;29;20062;-51
2024/01/28 03:10:26;;;;;;;8.30;3.47;;;4.40;99.90;;;;;;4915262;29;20056;-48
2024/01/28 03:12:52;;;;;;;5.38;3.22;;;4.40;99.90;;;;;;4931781;29;20055;-51
2024/01/28 03:15:19;;;;;;;10.98;3.10;;;4.40;99.90;;;;;;4928921;29;20110;-50
2024/01/28 03:17:46;;;;;;;8.68;2.88;;;4.40;99.90;;;;;;4928947;29;20051;-50
2024/01/28 03:20:12;;;;;;;5.43;2.58;;;4.40;99.90;;;;;;4928639;29;20087;-49
2024/01/28 03:22:37;;;;;;;5.50;2.40;;;4.40;99.90;;;;;;4914604;29;20023;-44
2024/01/28 03:25:04;;;;;;;7.18;3.17;;;4.30;99.90;;;;;;4914938;29;20071;-52
2024/01/28 03:27:30;;;;;;;6.90;2.60;;;4.40;99.90;;;;;;4915925;29;20031;-47
2024/01/28 03:29:56;;;;;;;9.15;3.20;;;4.30;99.90;;;;;;4915766;29;20383;-53
2024/01/28 03:32:21;;;;;;;10.95;3.13;;;4.30;99.90;;;;;;4919966;29;20028;-50
2024/01/28 03:34:47;;;;;;;10.65;3.20;;;4.30;99.90;;;;;;4923451;29;20114;-58
2024/01/28 03:37:12;;;;;;;14.10;3.83;;;4.30;99.90;;;;;;4917621;29;20032;-45
2024/01/28 03:39:38;;;;;;;7.35;2.78;;;4.30;99.90;;;;;;4918686;29;20028;-51
2024/01/28 03:42:04;;;;;;;12.52;3.67;;;4.20;99.90;;;;;;4922685;29;20031;-46
2024/01/28 03:44:30;;;;;;;8.48;2.80;;;4.20;99.90;;;;;;4927392;29;20476;-46
2024/01/28 03:46:57;;;;;;;10.80;3.00;;;4.20;99.90;;;;;;4928954;29;20510;-52
2024/01/28 03:49:22;;;;;;;6.00;2.72;;;4.10;99.90;;;;;;4926687;29;20031;-51
2024/01/28 03:51:48;;;;;;;9.48;3.63;;;4.10;99.90;;;;;;4932492;29;20094;-44
2024/01/28 03:54:14;;;;;;;7.70;3.42;;;4.20;99.90;;;;;;4921817;29;20242;-47
2024/01/28 03:56:40;;;;;;;10.10;3.40;;;4.10;99.90;;;;;;4919101;29;20032;-48
2024/01/28 03:59:06;;;;;;;8.85;3.40;;;4.10;99.90;;;;;;4910406;29;20036;-44
2024/01/28 04:01:33;;;;;;;8.70;3.13;;;4.10;99.90;;;;;;4918536;29;20051;-46
2024/01/28 04:03:59;;;;;;;8.00;3.28;;;4.10;99.90;;;;;;4922853;29;20100;-44
2024/01/28 04:06:25;;;;;;;11.13;3.30;;;4.10;99.90;;;;;;4936402;29;20040;-46
2024/01/28 04:08:55;;;;;;;10.38;3.90;;;4.10;99.90;;;;;;4933079;29;20034;-46
2024/01/28 04:11:25;;;;;;;;;;;4.10;99.90;;;;;;4936630;29;20088;-55
2024/01/28 04:13:51;;;;;;;12.77;3.45;;;4.20;99.90;;;;;;4936059;29;19938;-49
2024/01/28 04:16:17;;;;;;;12.00;2.78;;;4.20;99.90;;;;;;4935877;29;20032;-49
2024/01/28 04:18:43;;;;;;;7.72;3.15;;;4.10;99.90;;;;;;4920783;29;20072;-51
2024/01/28 04:21:09;;;;;;;10.63;3.30;;;4.10;99.90;;;;;;4923786;29;20028;-51
2024/01/28 04:23:34;;;;;;;9.38;3.65;;;4.10;99.90;;;;;;4921594;29;20028;-47
2024/01/28 04:26:00;;;;;;;6.63;3.13;;;4.10;99.90;;;;;;4921950;29;20051;-46
2024/01/28 04:28:26;;;;;;;5.72;2.95;;;4.20;99.90;;;;;;4918569;29;20020;-50
2024/01/28 04:30:51;;;;;;;9.82;3.35;;;4.10;99.90;;;;;;4929771;29;20103;-50
2024/01/28 04:33:17;;;;;;;11.05;3.70;;;4.10;99.90;;;;;;4916758;29;20021;-55
2024/01/28 04:35:43;;;;;;;21.83;3.67;;;4.10;99.90;;;;;;4924132;29;20054;-53
2024/01/28 04:38:08;;;;;;;9.10;3.50;;;4.10;99.90;;;;;;4935649;29;20032;-47
2024/01/28 04:40:34;;;;;;;7.63;3.15;;;4.00;99.90;;;;;;4935703;29;20131;-55
2024/01/28 04:43:00;;;;;;;12.10;3.95;;;3.80;99.90;;;;;;4935604;29;20028;-52
2024/01/28 04:45:25;;;;;;;10.90;3.85;;;3.80;99.90;;;;;;4935313;29;20090;-51
2024/01/28 04:47:51;;;;;;;12.82;3.60;;;3.80;99.90;;;;;;4935328;29;20131;-48
2024/01/28 04:50:17;;;;;;;8.52;4.10;;;3.80;99.90;;;;;;4935480;29;20036;-47
2024/01/28 04:52:42;;;;;;;10.70;4.18;;;3.80;99.90;;;;;;4935275;29;20019;-52
2024/01/28 04:55:09;;;;;;;9.75;3.08;;;4.00;99.90;;;;;;4935306;29;20532;-50
2024/01/28 04:57:35;;;;;;;9.02;3.70;;;4.00;99.90;;;;;;4935202;29;20547;-49
2024/01/28 05:00:00;;;;;;;10.35;3.42;;;4.10;99.90;;;;;;4934981;29;20027;-49
2024/01/28 05:02:26;;;;;;;5.10;3.03;;;4.10;99.90;;;;;;4934302;29;20098;-53
2024/01/28 05:04:52;;;;;;;8.07;3.38;;;4.00;99.90;;;;;;4934890;29;20107;-45
2024/01/28 05:07:17;;;;;;;6.10;3.42;;;4.00;99.90;;;;;;4927027;29;20020;-48
2024/01/28 05:09:43;;;;;;;18.75;4.65;;;4.00;99.90;;;;;;4934865;29;20024;-48
2024/01/28 05:12:09;;;;;;;11.57;3.50;;;4.10;99.90;;;;;;4934954;29;20042;-57
2024/01/28 05:14:35;;;;;;;7.95;3.83;;;4.10;99.90;;;;;;4934841;29;20047;-44
2024/01/28 05:17:01;;;;;;;10.00;3.80;;;4.10;99.90;;;;;;4934845;29;20020;-55
2024/01/28 05:19:26;;;;;;;8.07;3.58;;;4.00;99.90;;;;;;4934949;29;20027;-49
2024/01/28 05:21:52;;;;;;;12.70;3.75;;;4.00;99.90;;;;;;4934758;29;20020;-55
2024/01/28 05:24:18;;;;;;;6.03;3.70;;;4.00;99.90;;;;;;4934979;29;20057;-45
2024/01/28 05:26:43;;;;;;;12.18;3.97;;;3.90;99.90;;;;;;4934450;29;20695;-56
2024/01/28 05:29:09;;;;;;;8.02;3.65;;;4.00;99.90;;;;;;4934757;29;20487;-51
2024/01/28 05:31:35;;;;;;;10.00;3.60;;;4.00;99.90;;;;;;4933339;29;20395;-49
2024/01/28 05:34:01;;;;;;;8.73;3.78;;;4.00;99.90;;;;;;4934424;29;20027;-50
2024/01/28 05:36:27;;;;;;;11.82;3.65;;;4.10;99.90;;;;;;4934593;29;20066;-50
2024/01/28 05:38:56;;;;;;;12.27;4.13;;;4.10;99.90;;;;;;4934501;29;20078;-57
2024/01/28 05:41:22;;;;;;;11.55;4.45;;;4.20;99.90;;;;;;4934491;29;20024;-55
2024/01/28 05:43:47;;;;;;;10.27;3.92;;;4.10;99.90;;;;;;4934233;29;20024;-55
2024/01/28 05:46:13;;;;;;;8.70;3.90;;;4.20;99.90;;;;;;4934219;29;20039;-50
2024/01/28 05:48:38;;;;;;;8.02;3.70;;;4.30;99.90;;;;;;4934349;29;20387;-53
2024/01/28 05:51:04;;;;;;;13.40;4.22;;;4.20;99.90;;;;;;4933988;29;20400;-43
2024/01/28 05:53:30;;;;;;;14.43;4.80;;;4.30;99.90;;;;;;4934376;29;20028;-59
2024/01/28 05:55:55;;;;;;;9.70;4.32;;;4.30;99.90;;;;;;4934074;29;20047;-51
2024/01/28 05:58:22;;;;;;;8.15;3.92;;;4.30;99.90;;;;;;4934136;29;20133;-45
2024/01/28 06:00:48;;;;;;;10.80;4.13;;;4.40;99.90;;;;;;4933806;29;20480;-46
2024/01/28 06:03:14;;;;;;;7.22;3.85;;;4.40;99.90;;;;;;4933954;29;20086;-48
2024/01/28 06:05:40;;;;;;;12.20;4.07;;;4.40;99.90;;;;;;4933982;29;20039;-48
2024/01/28 06:08:08;;;;;;;12.98;4.47;;;4.40;99.90;;;;;;4933853;29;20410;-50
2024/01/28 06:10:34;;;;;;;11.30;4.63;;;4.40;99.90;;;;;;4934148;29;20062;-50
2024/01/28 06:13:00;;;;;;;7.75;3.75;;;4.40;99.90;;;;;;4933553;29;20032;-52
2024/01/28 06:15:26;;;;;;;8.98;4.43;;;4.40;99.90;;;;;;4933823;29;20059;-49
2024/01/28 06:17:51;;;;;;;15.05;3.90;;;4.40;99.90;;;;;;4933998;29;20036;-51
2024/01/28 06:20:17;;;;;;;9.40;4.68;;;4.50;99.90;;;;;;4933814;29;20096;-54
2024/01/28 06:22:43;;;;;;;10.60;3.60;;;4.50;99.90;;;;;;4934138;29;20035;-52
2024/01/28 06:25:09;;;;;;;9.63;4.15;;;4.40;99.90;;;;;;4933669;29;20051;-44
2024/01/28 06:27:35;;;;;;;12.55;3.70;;;4.40;99.90;;;;;;4933846;29;20110;-51
2024/01/28 06:30:00;;;;;;;14.43;5.00;;;4.40;99.90;;;;;;4933367;29;20027;-58
2024/01/28 06:32:26;;;;;;;12.02;4.68;;;4.40;99.90;;;;;;4933589;29;20403;-51
2024/01/28 06:34:52;;;;;;;14.32;4.22;;;4.40;99.90;;;;;;4933626;29;20522;-53
2024/01/28 06:37:18;;;;;;;9.45;3.80;;;4.30;99.90;;;;;;4933592;29;20035;-47
2024/01/28 06:39:46;;;;;;;10.45;3.63;;;4.30;99.90;;;;;;4933662;29;20741;-52
2024/01/28 06:42:12;;;;;;;13.18;4.22;;;4.30;99.90;;;;;;4933408;29;20023;-55
2024/01/28 06:44:38;;;;;;;8.63;4.10;;;4.30;99.90;;;;;;4933281;29;20387;-51
2024/01/28 06:47:06;;;;;;;10.77;3.72;;;4.30;99.90;;;;;;4933257;29;20051;-52
2024/01/28 06:49:31;;;;;;;9.13;3.92;;;4.20;99.90;;;;;;4933740;29;20030;-47
2024/01/28 06:51:57;;;;;;;13.90;4.20;;;4.20;99.90;;;;;;4932547;29;20039;-46
2024/01/28 06:54:23;;;;;;;11.90;4.25;;;4.20;99.90;;;;;;4933378;29;20167;-47
2024/01/28 06:56:48;;;;;;;10.00;3.67;;;4.20;99.90;;;;;;4933507;29;20053;-50
2024/01/28 06:59:14;;;;;;;8.80;3.92;;;4.10;99.90;;;;;;4933351;29;20510;-52
2024/01/28 07:01:40;;;;;;;9.05;4.70;;;4.10;99.90;;;;;;4928294;29;20032;-47
2024/01/28 07:04:06;;;;;;;6.70;3.83;;;4.10;99.90;;;;;;4923371;29;20024;-46
2024/01/28 07:06:32;;;;;;;14.15;4.68;;;4.10;99.90;;;;;;4926664;29;20053;-43
2024/01/28 07:08:57;;;;;;;11.80;3.97;;;4.10;99.90;;;;;;4912300;29;20035;-52
2024/01/28 07:11:23;;;;;;;12.88;4.40;;;4.00;99.90;;;;;;4913931;29;20040;-48
2024/01/28 07:13:49;;;;;;;11.60;3.53;;;4.00;99.90;;;;;;4933662;29;20064;-47
2024/01/28 07:16:14;;;;;;;11.82;4.05;;;4.00;99.90;;;;;;4933474;29;20087;-48
2024/01/28 07:18:40;;;;;;;8.40;3.90;;;3.90;99.90;;;;;;4920217;29;20020;-47
2024/01/28 07:21:06;;;;;;;10.98;4.10;;;3.90;99.90;;;;;;4933352;29;20099;-55
2024/01/28 07:23:31;;;;;;;13.18;4.28;;;3.90;99.90;;;;;;4933092;29;20419;-46
2024/01/28 07:25:57;;;;;;;9.63;3.67;;;3.90;99.90;;;;;;4936505;29;20156;-45
2024/01/28 07:28:23;;;;;;;9.13;4.10;;;3.80;99.90;;;;;;4936662;29;20067;-48
2024/01/28 07:30:49;;;;;;;11.02;4.30;;;3.70;99.90;;;;;;4928707;29;20375;-55
2024/01/28 07:33:15;;;;;;;12.20;3.97;;;3.80;99.90;;;;;;4930000;29;20063;-47
2024/01/28 07:35:41;;;;;;;9.55;3.88;;;3.90;99.90;;;;;;4936546;29;20020;-47
2024/01/28 07:38:11;;;;;;;13.57;4.10;;;4.00;99.90;;;;;;4936863;29;20036;-49
2024/01/28 07:40:37;;;;;;;11.32;3.67;;;4.10;99.90;;;;;;4934743;29;20020;-46
2024/01/28 07:43:03;;;;;;;9.98;4.30;;;4.20;99.90;;;;;;4934331;29;20035;-55
2024/01/28 07:45:29;;;;;;;13.30;5.10;;;4.30;99.90;;;;;;4930324;29;20411;-55
2024/01/28 07:47:54;;;;;;;9.32;5.25;;;4.50;99.90;;;;;;4935244;29;20471;-48
2024/01/28 07:50:20;;;;;;;18.08;4.80;;;4.50;99.90;;;;;;4931919;29;20101;-52
2024/01/28 07:52:47;;;;;;;11.77;4.80;;;4.50;99.90;;;;;;4931711;29;20054;-50
2024/01/28 07:55:12;;;;;;;12.00;4.70;;;4.50;99.90;;;;;;4931446;29;20446;-45
2024/01/28 07:57:38;;;;;;;10.70;4.57;;;4.60;99.90;;;;;;4931867;29;20168;-54
2024/01/28 08:00:04;;;;;;;13.73;5.05;;;4.70;99.90;;;;;;4935267;29;20044;-49
2024/01/28 08:02:30;;;;;;;12.93;5.68;;;4.80;99.90;;;;;;4934619;29;20016;-54
2024/01/28 08:04:56;;;;;;;11.23;4.35;;;4.90;99.90;;;;;;4935486;29;20046;-53
2024/01/28 08:07:22;;;;;;;10.45;4.65;;;5.00;99.90;;;;;;4929709;29;20095;-49
2024/01/28 08:09:48;;;;;;;12.63;4.68;;;5.10;99.90;;;;;;4929562;29;20047;-48
2024/01/28 08:12:14;;;;;;;10.45;4.78;;;5.10;99.90;;;;;;4928784;29;20038;-51
2024/01/28 08:14:39;;;;;;;12.23;5.05;;;5.20;99.90;;;;;;4935774;29;20040;-46
2024/01/28 08:17:05;;;;;;;12.50;4.28;;;5.30;99.90;;;;;;4935861;29;20035;-48
2024/01/28 08:19:31;;;;;;;9.98;4.35;;;5.30;99.90;;;;;;4936049;29;20023;-50
2024/01/28 08:21:58;;;;;;;11.38;4.72;;;5.40;99.90;;;;;;4932029;29;20076;-47
2024/01/28 08:24:24;;;;;;;8.38;4.25;;;5.40;99.90;;;;;;4910724;29;20068;-47
2024/01/28 08:26:50;;;;;;;11.25;4.88;;;5.50;99.90;;;;;;4919543;29;20051;-49
2024/01/28 08:29:16;;;;;;;13.50;4.95;;;5.60;99.90;;;;;;4920186;29;20104;-52
2024/01/28 08:31:41;;;;;;;13.30;4.22;;;5.70;99.90;;;;;;4918887;29;20079;-46
2024/01/28 08:34:07;;;;;;;12.57;4.72;;;5.70;99.90;;;;;;4922521;29;20024;-50
2024/01/28 08:36:33;;;;;;;15.85;3.97;;;5.80;99.90;;;;;;4918660;29;20107;-52
2024/01/28 08:38:58;;;;;;;9.75;3.88;;;5.90;99.90;;;;;;4922235;29;20028;-44
2024/01/28 08:41:24;;;;;;;9.63;4.47;;;6.00;99.90;;;;;;4910211;29;20024;-44
2024/01/28 08:43:50;;;;;;;9.10;4.38;;;6.20;99.90;;;;;;4922100;29;20043;-46
2024/01/28 08:46:16;;;;;;;11.85;5.22;;;6.30;99.90;;;;;;4921000;29;20040;-47
2024/01/28 08:48:42;;;;;;;13.00;4.78;;;6.40;99.90;;;;;;4922678;29;20099;-50
2024/01/28 08:51:09;;;;;;;12.02;4.57;;;6.50;99.90;;;;;;4917751;29;20120;-50
2024/01/28 08:53:35;;;;;;;10.68;4.45;;;6.50;99.90;;;;;;4918123;29;20472;-47
2024/01/28 08:56:00;;;;;;;15.85;4.45;;;6.50;99.90;;;;;;4921473;29;20030;-54
2024/01/28 08:58:26;;;;;;;15.90;4.88;;;6.70;99.90;;;;;;4923885;29;20060;-49
2024/01/28 09:00:52;;;;;;;9.15;3.85;;;6.80;99.90;;;;;;4906510;29;20069;-50
2024/01/28 09:03:17;;;;;;;11.98;4.90;;;6.90;99.90;;;;;;4919846;29;20119;-48
2024/01/28 09:05:43;;;;;;;7.82;4.38;;;6.90;99.90;;;;;;4902237;29;20075;-54
2024/01/28 09:08:09;;;;;;;8.63;4.22;;;7.00;99.90;;;;;;4902573;29;20036;-45
2024/01/28 09:10:34;;;;;;;11.15;3.97;;;7.10;99.90;;;;;;4897554;29;20067;-54
2024/01/28 09:13:00;;;;;;;10.48;3.70;;;7.30;99.90;;;;;;4925626;29;20031;-55
2024/01/28 09:15:26;;;;;;;9.68;4.03;;;7.50;99.90;;;;;;4923845;29;20451;-51
2024/01/28 09:17:51;;;;;;;14.60;4.43;;;7.70;99.90;;;;;;4923728;29;20023;-49
2024/01/28 09:20:17;;;;;;;11.27;3.92;;;8.10;99.90;;;;;;4921471;29;20487;-51
2024/01/28 09:22:43;;;;;;;9.73;4.28;;;8.60;99.90;;;;;;4917998;29;20515;-48
2024/01/28 09:25:09;;;;;;;9.70;3.58;;;9.10;99.90;;;;;;4912817;29;20091;-47
2024/01/28 09:27:34;;;;;;;11.55;4.30;;;9.50;99.90;;;;;;4918706;29;20067;-53
2024/01/28 09:30:00;;;;;;;6.90;3.47;;;9.30;99.90;;;;;;4927842;29;20534;-52
2024/01/28 09:32:26;;;;;;;7.10;3.45;;;9.20;99.90;;;;;;4928728;29;20031;-49
2024/01/28 09:34:52;;;;;;;6.97;3.25;;;9.10;99.90;;;;;;4925327;29;20028;-51
2024/01/28 09:37:18;;;;;;;9.10;3.90;;;8.90;99.90;;;;;;4918254;29;20055;-49
2024/01/28 09:39:44;;;;;;;8.80;4.10;;;8.90;99.90;;;;;;4929355;29;20035;-53
2024/01/28 09:42:29;;;;;;;10.88;3.53;;;8.80;99.90;;;;;;4921123;29;20043;-49
2024/01/28 09:44:55;;;;;;;12.70;3.70;;;8.90;99.90;;;;;;4929503;29;20502;-52
2024/01/28 09:47:21;;;;;;;8.60;3.90;;;9.00;99.90;;;;;;4922378;29;20031;-51
2024/01/28 09:49:47;;;;;;;12.00;3.42;;;9.10;99.90;;;;;;4925092;29;20035;-56
2024/01/28 09:52:13;;;;;;;7.15;3.33;;;9.50;99.90;;;;;;4919795;29;20024;-53
2024/01/28 09:54:41;;;;;;;10.48;3.22;;;9.80;99.90;;;;;;4925128;29;20491;-51
2024/01/28 09:57:08;;;;;;;9.80;3.40;;;10.00;99.90;;;;;;4919801;29;20481;-48
2024/01/28 09:59:37;;;;;;;10.07;3.45;;;10.40;99.90;;;;;;4922584;29;20029;-50
2024/01/28 10:02:05;;;;;;;6.72;3.00;;;10.80;99.90;;;;;;4905385;29;20391;-45
2024/01/28 10:04:32;;;;;;;8.48;3.80;;;10.90;99.90;;;;;;4920920;29;20486;-55
2024/01/28 10:07:02;;;;;;;9.02;3.33;;;11.30;99.90;;;;;;4925668;29;20395;-50
2024/01/28 10:09:31;;;;;;;5.80;2.75;;;11.30;99.90;;;;;;4924021;29;20079;-52
2024/01/28 10:12:00;;;;;;;7.53;3.35;;;11.50;99.90;;;;;;4928405;29;20032;-49
2024/01/28 10:14:26;;;;;;;8.55;3.22;;;11.90;99.90;;;;;;4924405;29;20477;-45
2024/01/28 10:16:53;;;;;;;9.05;3.00;;;12.10;99.90;;;;;;4932091;29;20084;-45
2024/01/28 10:19:18;;;;;;;8.55;3.55;;;12.40;99.90;;;;;;4915110;29;20028;-47
2024/01/28 10:21:44;;;;;;;5.28;2.70;;;12.90;99.90;;;;;;4926572;29;20108;-45
2024/01/28 10:24:11;;;;;;;8.25;3.20;;;13.40;99.90;;;;;;4927912;29;20110;-55
2024/01/28 10:26:37;;;;;;;5.30;2.58;;;13.70;99.90;;;;;;4917125;29;20505;-45
2024/01/28 10:29:03;;;;;;;8.93;3.13;;;14.20;99.90;;;;;;4920905;29;20142;-49
2024/01/28 10:31:30;;;;;;;7.05;2.70;;;15.00;99.90;;;;;;4909784;29;20397;-45
2024/01/28 10:33:56;;;;;;;8.57;3.22;;;15.00;99.90;;;;;;4906561;29;20092;-50
2024/01/28 10:36:22;;;;;;;6.70;2.65;;;16.20;99.90;;;;;;4903369;29;20068;-48
2024/01/28 10:38:48;;;;;;;8.10;2.80;;;16.80;99.90;;;;;;4904822;29;20090;-50
2024/01/28 10:41:18;;;;;;;10.52;3.50;;;16.70;99.90;;;;;;4918019;29;20039;-51
2024/01/28 10:43:57;;;;;;;6.50;3.20;;;16.10;99.90;;;;;;4911511;29;20111;-54
2024/01/28 10:46:44;;;;;;;;;;;16.30;99.90;;;;;;4904035;29;20124;-53
2024/01/28 10:49:10;;;;;;;7.78;2.42;;;15.70;99.90;;;;;;4903348;29;19907;-47
2024/01/28 10:51:38;;;;;;;7.28;3.35;;;15.90;99.90;;;;;;4907073;29;20384;-51
2024/01/28 10:54:09;;;;;;;8.82;3.17;;;15.80;99.90;;;;;;4912896;29;20507;-48
2024/01/28 10:56:39;;;;;;;7.18;3.20;;;16.10;99.90;;;;;;4913577;29;20039;-51
2024/01/28 10:59:05;;;;;;;9.02;3.20;;;15.90;99.90;;;;;;4903546;29;20040;-47
2024/01/28 11:01:33;;;;;;;6.68;2.95;;;15.90;99.90;;;;;;4917850;29;20035;-45
2024/01/28 11:04:00;;;;;;;4.78;2.55;;;15.60;99.90;;;;;;4926013;29;20028;-48
2024/01/28 11:06:35;;;;;;;7.55;3.15;;;16.10;99.90;;;;;;4921101;29;20036;-51
2024/01/28 11:09:01;;;;;;;9.85;3.13;;;16.70;99.90;;;;;;4933492;29;20122;-56
2024/01/28 11:11:27;;;;;;;9.70;3.47;;;17.00;99.90;;;;;;4934209;29;20055;-49
2024/01/28 11:13:52;;;;;;;7.28;3.30;;;16.90;99.00;;;;;;4936018;29;20035;-47
2024/01/28 11:16:19;;;;;;;9.90;2.90;;;16.90;99.00;;;;;;4924371;29;20031;-52
2024/01/28 11:18:58;;;;;;;7.30;3.22;;;16.90;99.20;;;;;;4934533;29;20020;-52
2024/01/28 11:21:26;;;;;;;7.35;2.83;;;16.50;99.00;;;;;;4935396;29;20035;-54
2024/01/28 11:23:56;;;;;;;8.07;3.30;;;15.80;99.90;;;;;;4934985;29;20083;-47
2024/01/28 11:26:24;;;;;;;9.50;3.60;;;15.60;99.90;;;;;;4935191;29;20102;-51
2024/01/28 11:28:52;;;;;;;6.45;3.42;;;15.50;99.90;;;;;;4934667;29;20465;-50
2024/01/28 11:31:31;;;;;;;4.93;2.78;;;16.20;99.90;;;;;;4935426;29;20103;-53
2024/01/28 11:34:19;;;;;;;6.28;2.90;;;16.60;99.50;;;;;;4934428;29;20023;-51
2024/01/28 11:36:53;;;;;;;7.82;2.88;;;16.80;99.50;;;;;;4934801;29;20047;-58
2024/01/28 11:39:45;;;;;;;7.55;3.20;;;16.70;98.90;;;;;;4911750;29;20076;-55
2024/01/28 11:42:11;;;;;;;8.77;2.90;;;16.20;98.90;;;;;;4928102;29;20040;-55
2024/01/28 11:44:37;;;;;;;5.53;2.88;;;16.00;99.60;;;;;;4935453;29;20035;-50
2024/01/28 11:47:03;;;;;;;6.65;2.88;;;16.30;99.80;;;;;;4934276;29;20443;-49
2024/01/28 11:49:29;;;;;;;4.85;2.67;;;16.20;99.10;;;;;;4935287;29;20453;-46
2024/01/28 11:51:55;;;;;;;7.78;3.33;;;15.80;99.50;;;;;;4935112;29;20034;-52
2024/01/28 11:54:21;;;;;;;6.85;2.83;;;15.90;98.80;;;;;;4934239;29;20050;-49
2024/01/28 11:56:47;;;;;;;6.63;3.03;;;15.60;99.50;;;;;;4935059;29;20067;-49
2024/01/28 11:59:13;;;;;;;7.35;2.80;;;15.80;99.00;;;;;;4927963;29;20048;-51
2024/01/28 12:01:39;;;;;;;7.47;2.85;;;15.30;99.80;;;;;;4934761;29;20028;-55
2024/01/28 12:04:05;;;;;;;7.18;2.58;;;15.30;99.90;;;;;;4933952;29;20024;-57
2024/01/28 12:06:32;;;;;;;8.05;3.45;;;15.60;99.90;;;;;;4930907;29;20044;-51
2024/01/28 12:09:00;;;;;;;6.63;3.25;;;15.30;99.80;;;;;;4932355;29;20039;-46
2024/01/28 12:11:29;;;;;;;5.72;2.67;;;15.10;99.90;;;;;;4932140;29;20016;-53
2024/01/28 12:13:55;;;;;;;7.45;3.08;;;14.50;99.90;;;;;;4935246;29;20026;-56
2024/01/28 12:16:25;;;;;;;7.43;3.05;;;13.80;99.90;;;;;;4935106;29;20051;-50
2024/01/28 12:18:54;;;;;;;;;;;13.50;99.90;;;;;;4932528;29;20019;-49
2024/01/28 12:21:21;;;;;;;;;;;13.40;99.90;;;;;;4897024;29;19919;-48
2024/01/28 12:23:51;;;;;;;6.38;3.33;;;12.90;99.90;;;;;;4903332;29;19922;-45
2024/01/28 12:26:16;;;;;;;;;;;12.50;99.90;;;;;;4909602;29;20127;-50
2024/01/28 12:28:49;;;;;;;5.95;3.50;;;12.30;99.90;;;;;;4907010;29;20006;-51
2024/01/28 12:31:17;;;;;;;6.38;3.17;;;12.20;99.90;;;;;;4899577;29;20040;-50
2024/01/28 12:33:44;;;;;;;7.95;4.15;;;12.30;99.90;;;;;;4903057;29;21726;-48
2024/01/28 12:36:10;;;;;;;6.15;3.20;;;12.60;99.90;;;;;;4933268;29;20114;-51
2024/01/28 12:38:36;;;;;;;10.95;3.45;;;12.60;99.90;;;;;;4926815;29;20469;-52
2024/01/28 12:41:01;;;;;;;6.47;2.83;;;12.90;99.90;;;;;;4928303;29;20028;-49
2024/01/28 12:43:27;;;;;;;9.90;3.67;;;13.20;99.90;;;;;;4919687;29;20633;-49
2024/01/28 12:45:53;;;;;;;10.68;3.88;;;13.40;99.90;;;;;;4926124;29;20072;-53
2024/01/28 12:48:18;;;;;;;7.60;3.47;;;13.90;99.90;;;;;;4933415;29;20035;-51
2024/01/28 12:50:44;;;;;;;5.05;2.95;;;14.60;99.90;;;;;;4915376;29;20028;-49